Latest Weather Observations for Cloncurry

IDQ60801

Issued at 9:02 pm EST Tuesday 3 March 2015 (issued every 30 minutes, with the page automatically refreshed every 10 minutes)

About weather observations | Map of weather stations | Latest weather observations for QLD | Other Formats
Station Details ID: 029141 Name: CLONCURRY AIRPORT Lat: -20.67 Lon: 140.50 Height: 186.0 m
Data from the previous 72 hours. | See also: Recent months at Cloncurry
Date/Time
EST
Temp
°C
App
Temp
°C
Dew
Point
Rel
Hum
%
Delta-T
°C
Wind Press
QNH
hPa
Press
MSL
hPa
Rain
since 9 am
mm
Dir
 
Spd
km/h
Gust
km/h
Spd
kts
Gust
kts
03/09:00pm 32.5 34.8 20.7 49 8.0 NNE 9 11 5 6 1008.9 1007.6 0.2
03/08:30pm 33.4 36.0 21.2 48 8.3 NNE 9 13 5 7 1008.7 1007.4 0.2
03/08:00pm 34.0 36.7 20.7 45 9.0 NNE 7 9 4 5 1008.4 1007.1 0.2
03/07:30pm 34.6 37.0 20.9 44 9.3 NNE 9 13 5 7 1008.1 1006.8 0.2
03/07:00pm 35.1 37.6 21.0 43 9.6 NNE 9 13 5 7 1007.4 1006.1 0.2
03/06:30pm 35.5 37.4 21.4 44 9.7 NNE 13 17 7 9 1007.2 1005.9 0.2
03/06:00pm 36.1 39.1 21.9 43 9.8 NNE 9 17 5 9 1006.9 1005.6 0.2
03/05:30pm 36.0 38.5 21.8 43 9.8 NE 11 17 6 9 1006.6 1005.3 0.2
03/05:00pm 35.9 38.4 22.5 46 9.3 NNE 13 20 7 11 1006.9 1005.6 0.2
03/04:30pm 36.1 38.7 22.6 45 9.4 NNE 13 20 7 11 1007.2 1005.9 0.2
03/04:00pm 35.4 38.8 22.7 47 8.8 N 9 15 5 8 1007.2 1005.9 0.2
03/03:30pm 35.6 38.2 23.9 51 8.3 N 17 22 9 12 1007.4 1006.1 0.2
03/03:00pm 35.1 38.5 24.1 53 7.8 N 13 22 7 12 1008.0 1006.6 0.2
03/02:30pm 34.4 37.8 24.0 54 7.3 NNW 13 19 7 10 1008.5 1007.2 0.2
03/02:00pm 34.4 37.6 24.3 55 7.2 NW 15 22 8 12 1009.0 1007.7 0.2
03/01:30pm 33.8 37.2 24.7 59 6.5 NNW 15 24 8 13 1009.6 1008.3 0.2
03/01:00pm 33.5 36.7 24.9 60 6.1 NNW 17 26 9 14 1010.0 1008.7 0.2
03/12:30pm 33.5 36.7 25.5 63 5.7 NNW 19 26 10 14 1010.5 1009.2 0.2
03/12:00pm 32.6 35.7 25.4 66 5.1 NNW 19 26 10 14 1011.0 1009.7 0.2
03/11:30am 31.6 35.3 25.2 69 4.5 NNW 15 20 8 11 1011.3 1010.0 0.2
03/11:00am 30.8 34.3 25.4 73 3.8 N 17 22 9 12 1011.8 1010.5 0.2
03/10:30am 29.5 33.6 24.6 75 3.4 N 11 20 6 11 1011.9 1010.6 0.2
03/10:00am 28.4 32.5 24.0 77 3.1 NW 9 11 5 6 1012.0 1010.7 0.0
03/09:30am 27.3 31.6 23.3 79 2.8 NW 6 7 3 4 1011.8 1010.5 0.0
03/09:00am 26.5 31.3 22.8 80 2.5 NW 2 7 1 4 1011.4 1010.1 6.6
03/08:30am 25.9 30.7 22.2 80 2.5 CALM 0 6 0 3 1010.8 1009.5 6.6
03/08:00am 25.4 28.7 21.9 81 2.4 NNE 7 11 4 6 1010.4 1009.1 6.6
03/07:30am 24.5 26.9 20.8 80 2.4 N 9 13 5 7 1010.0 1008.7 6.6
03/07:00am 24.1 24.1 19.8 77 2.8 NNW 19 28 10 15 1009.2 1007.9 4.4
03/06:30am 25.0 22.5 19.8 73 3.4 NE 32 46 17 25 1009.0 1007.7 3.4
03/06:06am 29.0 28.6 21.7 64 4.9 ENE 26 67 14 36 1009.7 1008.4 0.0
03/06:00am 29.1 31.0 22.1 66 4.8 NNE 15 24 8 13 1009.1 1007.8 0.0
03/05:30am 28.9 30.2 21.7 65 4.9 N 17 22 9 12 1007.7 1006.4 0.0
03/05:00am 29.1 31.0 21.3 62 5.3 N 13 15 7 8 1007.4 1006.1 0.0
03/04:30am 29.4 30.8 21.1 61 5.6 N 15 17 8 9 1006.9 1005.6 0.0
03/04:00am 29.5 31.4 20.6 58 5.9 N 11 13 6 7 1006.9 1005.6 0.0
03/03:30am 29.8 31.6 20.4 57 6.3 N 11 15 6 8 1006.7 1005.4 0.0
03/03:00am 30.1 31.5 20.4 56 6.5 N 13 17 7 9 1006.9 1005.6 0.0
03/02:30am 30.3 31.7 19.6 52 7.1 N 11 13 6 7 1006.9 1005.6 0.0
03/02:00am 30.8 32.0 19.8 52 7.3 NNW 13 17 7 9 1006.9 1005.6 0.0
03/01:30am 30.6 32.4 19.6 51 7.3 NNW 9 11 5 6 1006.7 1005.4 0.0
03/01:00am 30.5 32.1 19.2 51 7.4 NNW 9 11 5 6 1006.7 1005.4 0.0
03/12:30am 30.6 32.0 18.7 49 7.8 NNW 9 13 5 7 1006.6 1005.3 0.0
03/12:00am 31.5 32.2 18.8 46 8.3 NNW 13 15 7 8 1006.6 1005.3 0.0
 
Date/Time
EST
Temp
°C
App
Temp
°C
Dew
Point
Rel
Hum
%
Delta-T
°C
Wind Press
QNH
hPa
Press
MSL
hPa
Rain
since 9 am
mm
Dir
 
Spd
km/h
Gust
km/h
Spd
kts
Gust
kts
02/11:30pm 32.3 32.2 18.8 44 8.9 N 17 24 9 13 1006.8 1005.5 0.0
02/11:00pm 32.7 32.1 18.8 43 9.1 N 20 26 11 14 1006.9 1005.6 0.0
02/10:30pm 32.8 32.4 18.9 43 9.1 NNE 19 26 10 14 1006.7 1005.4 0.0
02/10:00pm 32.9 31.5 18.7 43 9.3 NNE 24 33 13 18 1006.6 1005.3 0.0
02/09:44pm 33.1 30.2 18.8 42 9.4 NNE 32 48 17 26 1006.2 1004.9 0.0
02/09:35pm 33.2 33.6 18.2 41 9.8 NW 13 37 7 20 1006.3 1005.0 0.0
02/09:30pm 34.2 35.8 19.1 41 10.0 WNW 9 9 5 5 1005.9 1004.6 0.0
02/09:00pm 34.4 35.7 18.4 38 10.5 WNW 9 11 5 6 1005.5 1004.2 0.0
02/08:30pm 34.9 36.2 18.5 38 10.8 WNW 9 11 5 6 1005.6 1004.3 0.0
02/08:00pm 35.6 36.8 18.2 35 11.5 WNW 9 11 5 6 1005.2 1003.9 0.0
02/07:30pm 36.0 37.0 17.7 34 11.9 WNW 9 11 5 6 1005.0 1003.7 0.0
02/07:00pm 37.1 38.4 17.6 31 12.8 WNW 7 9 4 5 1004.8 1003.5 0.0
02/06:30pm 38.2 38.8 17.6 30 13.5 W 11 15 6 8 1004.1 1002.8 0.0
02/06:00pm 39.4 41.5 18.1 29 14.2 WNW 4 7 2 4 1003.9 1002.6 0.0
02/05:30pm 38.9 39.3 18.2 30 13.7 W 13 26 7 14 1004.0 1002.7 0.0
02/05:00pm 39.1 39.6 18.3 29 13.8 WSW 13 20 7 11 1003.9 1002.6 0.0
02/04:30pm 39.3 39.7 19.0 30 13.6 WNW 15 24 8 13 1004.0 1002.7 0.0
02/04:00pm 40.2 41.8 20.8 32 13.4 W 13 28 7 15 1004.1 1002.8 0.0
02/03:30pm 39.1 40.5 20.4 34 12.7 NW 13 20 7 11 1004.4 1003.1 0.0
02/03:00pm 39.3 40.0 20.5 33 12.9 NW 17 33 9 18 1004.8 1003.5 0.0
02/02:30pm 39.0 40.7 21.6 36 12.0 WNW 15 28 8 15 1005.1 1003.8 0.0
02/02:00pm 38.0 39.5 21.2 37 11.6 NW 15 26 8 14 1005.3 1004.0 0.0
02/01:30pm 37.8 40.2 22.3 41 10.8 WNW 13 26 7 14 1005.9 1004.6 0.0
02/01:00pm 37.2 38.9 21.7 40 10.7 WNW 15 26 8 14 1006.3 1005.0 0.0
02/12:30pm 36.8 38.2 22.9 44 9.7 NW 20 33 11 18 1007.0 1005.7 0.0
02/12:00pm 35.9 38.6 23.5 48 8.7 NW 15 24 8 13 1007.4 1006.1 0.0
02/11:30am 34.3 37.7 23.3 52 7.7 NW 11 20 6 11 1008.0 1006.6 0.0
02/11:00am 33.3 35.5 23.3 55 7.0 NW 17 20 9 11 1008.2 1006.9 0.0
02/10:30am 32.2 34.4 23.2 59 6.3 NW 17 22 9 12 1008.5 1007.2 0.0
02/10:00am 31.7 35.0 23.8 63 5.5 NW 13 22 7 12 1008.6 1007.3 0.0
02/09:30am 30.9 34.5 23.8 66 5.0 NNW 11 17 6 9 1008.4 1007.1 0.0
02/09:00am 30.2 33.9 23.9 69 4.4 NW 11 15 6 8 1008.2 1006.9 0.0
02/08:30am 29.5 32.7 23.7 71 4.0 N 13 15 7 8 1008.1 1006.8 0.0
02/08:00am 28.9 32.9 23.8 74 3.5 NNW 9 11 5 6 1007.8 1006.5 0.0
02/07:30am 27.8 32.9 22.7 74 3.5 CALM 0 0 0 0 1007.5 1006.2 0.0
02/07:00am 27.5 31.1 22.4 73 3.5 NNW 7 9 4 5 1007.1 1005.8 0.0
02/06:30am 27.3 30.9 22.0 73 3.6 NNW 6 7 3 4 1006.8 1005.5 0.0
02/06:00am 27.5 30.9 22.0 72 3.7 NNW 7 7 4 4 1006.5 1005.2 0.0
02/05:30am 27.8 30.9 22.1 71 3.9 NNW 9 11 5 6 1006.3 1005.0 0.0
02/05:00am 28.0 31.0 22.0 70 4.1 NNW 9 11 5 6 1006.0 1004.7 0.0
02/04:30am 28.2 31.2 22.0 69 4.2 NNW 9 13 5 7 1006.0 1004.7 0.0
02/04:00am 28.2 30.3 21.7 68 4.4 NW 13 17 7 9 1005.8 1004.5 0.0
02/03:30am 28.2 30.2 21.5 67 4.5 NW 13 15 7 8 1006.1 1004.8 0.0
02/03:00am 28.4 30.1 21.7 67 4.5 NW 15 20 8 11 1006.0 1004.7 0.0
02/02:30am 28.2 30.7 21.7 68 4.4 NNW 11 15 6 8 1006.1 1004.8 0.0
02/02:00am 28.2 30.7 21.7 68 4.4 NNW 11 13 6 7 1006.3 1005.0 0.0
02/01:30am 28.2 30.6 21.5 67 4.5 NNW 11 15 6 8 1006.4 1005.1 0.0
02/01:00am 28.3 30.2 21.3 65 4.7 NNW 13 17 7 9 1006.6 1005.3 0.0
02/12:30am 28.8 30.5 21.6 65 4.9 NNW 15 22 8 12 1007.0 1005.7 0.0
02/12:00am 28.9 30.1 21.4 64 5.1 N 17 24 9 13 1007.3 1006.0 0.0
 
Date/Time
EST
Temp
°C
App
Temp
°C
Dew
Point
Rel
Hum
%
Delta-T
°C
Wind Press
QNH
hPa
Press
MSL
hPa
Rain
since 9 am
mm
Dir
 
Spd
km/h
Gust
km/h
Spd
kts
Gust
kts
01/11:30pm 29.0 29.4 21.0 62 5.4 NNW 20 30 11 16 1007.4 1006.1 0.0
01/11:00pm 29.5 29.5 20.9 60 5.8 N 22 30 12 16 1007.5 1006.2 0.0
01/10:30pm 30.0 28.2 20.3 56 6.4 N 30 39 16 21 1007.1 1005.8 0.0
01/10:00pm 31.6 31.2 20.2 50 7.6 NNE 22 39 12 21 1007.0 1005.7 0.0
01/09:30pm 33.1 34.6 20.6 47 8.4 W 13 17 7 9 1007.2 1005.9 0.0
01/09:00pm 33.0 36.4 20.2 47 8.6 W 2 7 1 4 1006.5 1005.2 0.0
01/08:30pm 33.0 35.3 19.8 45 8.8 W 7 11 4 6 1005.9 1004.6 0.0
01/08:00pm 33.4 34.6 19.8 44 9.1 W 13 20 7 11 1005.1 1003.8 0.0
01/07:30pm 34.3 35.3 20.3 44 9.4 WNW 15 22 8 12 1004.9 1003.6 0.0
01/07:00pm 34.6 36.1 19.8 41 9.9 W 11 17 6 9 1004.0 1002.7 0.0
01/06:30pm 35.4 36.1 19.7 39 10.5 W 15 20 8 11 1003.8 1002.5 0.0
01/06:00pm 36.2 37.4 20.0 38 10.9 W 13 19 7 10 1003.8 1002.5 0.0
01/05:30pm 36.4 37.4 20.2 38 10.9 W 15 22 8 12 1003.9 1002.6 0.0
01/05:00pm 37.0 37.1 19.9 36 11.6 WSW 19 26 10 14 1003.6 1002.3 0.0
01/04:30pm 37.0 38.4 20.3 37 11.3 W 13 19 7 10 1003.6 1002.3 0.0
01/04:00pm 37.1 38.5 20.4 37 11.4 W 13 20 7 11 1003.9 1002.6 0.0
01/03:30pm 37.1 38.2 21.2 39 10.9 SW 17 24 9 13 1004.2 1002.9 0.0
01/03:00pm 36.6 38.2 20.8 39 10.8 WNW 13 24 7 13 1004.7 1003.4 0.0
01/02:30pm 37.2 38.5 21.7 40 10.7 WNW 17 26 9 14 1005.1 1003.8 0.0
01/02:00pm 36.6 38.3 22.4 44 9.9 WNW 17 26 9 14 1005.6 1004.3 0.0
01/01:30pm 36.1 37.9 22.6 45 9.4 WNW 17 26 9 14 1006.0 1004.7 0.0
01/01:00pm 35.7 38.3 23.3 48 8.7 NW 15 22 8 12 1006.6 1005.3 0.0
01/12:30pm 34.8 37.3 23.8 53 7.7 NNW 17 24 9 13 1007.0 1005.7 0.0
01/12:00pm 33.9 36.6 24.2 57 6.9 NNW 17 24 9 13 1007.2 1005.9 0.0
01/11:30am 33.2 36.2 24.7 61 6.0 NNW 17 22 9 12 1007.8 1006.5 0.0
01/11:00am 31.8 33.5 24.1 63 5.4 NNW 22 30 12 16 1008.2 1006.9 0.0
01/10:30am 32.2 35.6 25.8 69 4.6 NNW 19 26 10 14 1008.5 1007.2 0.0
01/10:00am 30.7 33.3 25.5 74 3.7 NW 22 28 12 15 1008.4 1007.1 0.0
01/09:30am 29.6 32.6 25.3 77 3.0 NW 19 26 10 14 1008.5 1007.1 0.0
01/09:00am 28.1 29.9 24.3 80 2.7 N 22 30 12 16 1008.0 1006.5 11.4
01/08:30am 27.3 30.0 23.5 80 2.6 N 15 20 8 11 1007.8 1006.4 11.4
01/08:00am 26.7 28.4 23.0 80 2.5 NW 19 26 10 14 1007.6 1006.2 11.4
01/07:30am 26.2 26.0 22.1 78 2.8 NNW 26 32 14 17 1006.4 1005.0 11.4
01/07:00am 26.1 26.1 20.2 70 3.9 SSW 20 28 11 15 1007.3 1005.9 4.4
01/06:30am 29.3 31.0 22.3 66 4.8 NNW 17 20 9 11 1005.6 1004.2 0.2
01/06:00am 29.2 30.9 22.4 66 4.7 NNW 17 20 9 11 1005.5 1004.1 0.2
01/05:30am 29.1 31.7 22.6 68 4.4 NNW 13 19 7 10 1005.3 1003.9 0.2
01/05:00am 29.2 30.7 22.7 68 4.5 NNW 19 22 10 12 1005.0 1003.6 0.2
01/04:30am 29.3 31.6 22.8 68 4.5 NNW 15 20 8 11 1004.8 1003.4 0.2
01/04:00am 29.4 31.2 22.6 67 4.7 NNW 17 20 9 11 1004.5 1003.1 0.2
01/03:30am 29.6 30.7 22.3 65 5.0 NNW 20 26 11 14 1004.2 1002.8 0.2
01/03:00am 29.7 31.1 21.9 63 5.3 NNW 17 20 9 11 1004.0 1002.6 0.2
01/02:30am 30.0 31.0 21.7 61 5.6 NNW 19 26 10 14 1004.1 1002.7 0.2
01/02:00am 30.4 31.1 21.5 59 6.0 NNW 20 28 11 15 1004.4 1003.0 0.2
01/01:30am 30.7 30.8 21.8 59 6.0 NNW 24 32 13 17 1004.7 1003.3 0.2
01/01:00am 30.3 32.5 21.9 60 5.7 NW 13 17 7 9 1005.1 1003.7 0.2
01/12:30am 30.6 32.7 21.7 59 6.0 NW 13 17 7 9 1005.1 1003.7 0.2
01/12:00am 30.0 31.5 20.5 56 6.4 NW 13 15 7 8 1005.3 1003.9 0.2
 
Date/Time
EST
Temp
°C
App
Temp
°C
Dew
Point
Rel
Hum
%
Delta-T
°C
Wind Press
QNH
hPa
Press
MSL
hPa
Rain
since 9 am
mm
Dir
 
Spd
km/h
Gust
km/h
Spd
kts
Gust
kts
28/11:30pm 30.3 31.2 19.3 51 7.2 NNW 13 17 7 9 1005.8 1004.4 0.2
28/11:00pm 33.1 34.9 19.6 45 9.0 NNW 9 13 5 7 1005.6 1004.2 0.0
28/10:30pm 33.1 34.5 19.6 45 9.0 NNW 11 13 6 7 1005.1 1003.7 0.0
28/10:00pm 32.9 33.5 19.4 45 9.0 NNW 15 19 8 10 1004.9 1003.5 0.0
28/09:30pm 32.9 35.0 19.4 45 8.9 SW 7 9 4 5 1005.1 1003.7 0.0

Other Formats:

Comma delimited format used in spreadsheet applications
http://www.bom.gov.au/fwo/IDQ60801/IDQ60801.94335.axf

JavaScript Object Notation format (JSON) in row-major order
http://www.bom.gov.au/fwo/IDQ60801/IDQ60801.94335.json